sensor_id;sensor_type;location;lat;lon;timestamp;P1;durP1;ratioP1;P2;durP2;ratioP2
56419;SDS011;42323;52.170;7.538;2022-10-31T00:01:18;17.42;;;9.70;;
56419;SDS011;42323;52.170;7.538;2022-10-31T00:03:56;17.02;;;8.70;;
56419;SDS011;42323;52.170;7.538;2022-10-31T00:06:35;22.10;;;9.55;;
56419;SDS011;42323;52.170;7.538;2022-10-31T00:09:03;21.63;;;10.55;;
56419;SDS011;42323;52.170;7.538;2022-10-31T00:11:33;17.48;;;10.30;;
56419;SDS011;42323;52.170;7.538;2022-10-31T00:14:09;19.75;;;9.52;;
56419;SDS011;42323;52.170;7.538;2022-10-31T00:16:46;19.40;;;9.60;;
56419;SDS011;42323;52.170;7.538;2022-10-31T00:25:11;21.88;;;10.35;;
56419;SDS011;42323;52.170;7.538;2022-10-31T00:28:30;19.17;;;9.75;;
56419;SDS011;42323;52.170;7.538;2022-10-31T00:31:20;22.58;;;11.23;;
56419;SDS011;42323;52.170;7.538;2022-10-31T00:34:22;20.65;;;10.48;;
56419;SDS011;42323;52.170;7.538;2022-10-31T00:37:01;20.42;;;10.85;;
56419;SDS011;42323;52.170;7.538;2022-10-31T00:39:55;19.38;;;10.23;;
56419;SDS011;42323;52.170;7.538;2022-10-31T00:42:45;21.23;;;10.23;;
56419;SDS011;42323;52.170;7.538;2022-10-31T00:45:50;17.23;;;9.23;;
56419;SDS011;42323;52.170;7.538;2022-10-31T00:48:39;19.38;;;8.75;;
56419;SDS011;42323;52.170;7.538;2022-10-31T00:51:19;18.08;;;10.57;;
56419;SDS011;42323;52.170;7.538;2022-10-31T00:56:53;17.27;;;8.77;;
56419;SDS011;42323;52.170;7.538;2022-10-31T01:06:10;18.02;;;9.10;;
56419;SDS011;42323;52.170;7.538;2022-10-31T01:09:07;17.80;;;9.52;;
56419;SDS011;42323;52.170;7.538;2022-10-31T01:12:23;19.35;;;9.13;;
56419;SDS011;42323;52.170;7.538;2022-10-31T01:18:52;19.83;;;10.18;;
56419;SDS011;42323;52.170;7.538;2022-10-31T01:21:51;20.45;;;10.70;;
56419;SDS011;42323;52.170;7.538;2022-10-31T01:25:15;21.40;;;9.23;;
56419;SDS011;42323;52.170;7.538;2022-10-31T01:28:37;16.65;;;8.60;;
56419;SDS011;42323;52.170;7.538;2022-10-31T01:31:56;17.17;;;9.20;;
56419;SDS011;42323;52.170;7.538;2022-10-31T01:35:18;16.75;;;8.48;;
56419;SDS011;42323;52.170;7.538;2022-10-31T05:09:06;15.82;;;8.35;;
56419;SDS011;42323;52.170;7.538;2022-10-31T05:47:50;13.32;;;7.78;;
56419;SDS011;42323;52.170;7.538;2022-10-31T05:51:04;13.20;;;7.22;;
56419;SDS011;42323;52.170;7.538;2022-10-31T05:54:05;12.23;;;7.28;;
56419;SDS011;42323;52.170;7.538;2022-10-31T05:57:21;12.85;;;7.53;;
56419;SDS011;42323;52.170;7.538;2022-10-31T06:00:09;11.38;;;7.35;;
56419;SDS011;42323;52.170;7.538;2022-10-31T06:03:10;12.15;;;7.70;;
56419;SDS011;42323;52.170;7.538;2022-10-31T06:05:58;12.35;;;7.45;;
56419;SDS011;42323;52.170;7.538;2022-10-31T08:22:42;11.27;;;7.40;;
56419;SDS011;42323;52.170;7.538;2022-10-31T08:25:17;11.18;;;7.82;;
56419;SDS011;42323;52.170;7.538;2022-10-31T08:34:10;14.50;;;8.85;;
56419;SDS011;42323;52.170;7.538;2022-10-31T08:37:00;11.00;;;7.75;;
56419;SDS011;42323;52.170;7.538;2022-10-31T08:45:03;10.68;;;7.43;;
56419;SDS011;42323;52.170;7.538;2022-10-31T08:47:30;12.40;;;7.30;;
56419;SDS011;42323;52.170;7.538;2022-10-31T08:50:10;11.32;;;7.78;;
56419;SDS011;42323;52.170;7.538;2022-10-31T08:52:42;11.07;;;8.00;;
56419;SDS011;42323;52.170;7.538;2022-10-31T08:55:29;11.45;;;7.85;;
56419;SDS011;42323;52.170;7.538;2022-10-31T08:57:57;11.77;;;8.40;;
56419;SDS011;42323;52.170;7.538;2022-10-31T09:00:27;13.48;;;8.43;;
56419;SDS011;42323;52.170;7.538;2022-10-31T09:05:34;12.32;;;8.27;;
56419;SDS011;42323;52.170;7.538;2022-10-31T09:08:04;16.52;;;8.85;;
56419;SDS011;42323;52.170;7.538;2022-10-31T09:10:55;14.15;;;8.63;;
56419;SDS011;42323;52.170;7.538;2022-10-31T09:17:11;16.20;;;9.63;;
56419;SDS011;42323;52.170;7.538;2022-10-31T09:20:01;16.65;;;10.13;;
56419;SDS011;42323;52.170;7.538;2022-10-31T09:22:28;14.85;;;9.52;;
56419;SDS011;42323;52.170;7.538;2022-10-31T09:25:02;17.13;;;9.80;;
56419;SDS011;42323;52.170;7.538;2022-10-31T09:27:55;17.45;;;10.60;;
56419;SDS011;42323;52.170;7.538;2022-10-31T09:30:31;17.98;;;11.35;;
56419;SDS011;42323;52.170;7.538;2022-10-31T09:33:14;20.92;;;11.95;;
56419;SDS011;42323;52.170;7.538;2022-10-31T09:36:08;18.20;;;10.77;;
56419;SDS011;42323;52.170;7.538;2022-10-31T09:42:14;19.70;;;11.00;;
56419;SDS011;42323;52.170;7.538;2022-10-31T10:02:05;24.52;;;13.77;;
56419;SDS011;42323;52.170;7.538;2022-10-31T10:28:49;20.73;;;12.55;;
56419;SDS011;42323;52.170;7.538;2022-10-31T10:31:32;19.90;;;11.73;;
56419;SDS011;42323;52.170;7.538;2022-10-31T10:49:53;20.70;;;11.57;;
56419;SDS011;42323;52.170;7.538;2022-10-31T10:52:36;18.42;;;10.73;;
56419;SDS011;42323;52.170;7.538;2022-10-31T10:58:06;21.08;;;12.43;;
56419;SDS011;42323;52.170;7.538;2022-10-31T11:00:36;22.02;;;11.70;;
56419;SDS011;42323;52.170;7.538;2022-10-31T11:03:07;19.80;;;11.48;;
56419;SDS011;42323;52.170;7.538;2022-10-31T11:05:39;18.75;;;11.75;;
56419;SDS011;42323;52.170;7.538;2022-10-31T11:08:10;18.65;;;12.10;;
56419;SDS011;42323;52.170;7.538;2022-10-31T11:11:35;20.35;;;11.73;;
56419;SDS011;42323;52.170;7.538;2022-10-31T11:13:44;19.88;;;12.10;;
56419;SDS011;42323;52.170;7.538;2022-10-31T11:21:28;22.38;;;12.15;;
56419;SDS011;42323;52.170;7.538;2022-10-31T11:26:35;18.67;;;11.55;;
56419;SDS011;42323;52.170;7.538;2022-10-31T11:29:04;21.00;;;11.35;;
56419;SDS011;42323;52.170;7.538;2022-10-31T11:31:34;21.42;;;11.73;;
56419;SDS011;42323;52.170;7.538;2022-10-31T11:34:05;24.98;;;11.38;;
56419;SDS011;42323;52.170;7.538;2022-10-31T11:36:39;23.05;;;11.88;;
56419;SDS011;42323;52.170;7.538;2022-10-31T11:39:20;19.45;;;11.52;;
56419;SDS011;42323;52.170;7.538;2022-10-31T11:41:50;20.98;;;10.93;;
56419;SDS011;42323;52.170;7.538;2022-10-31T11:44:36;20.38;;;11.93;;
56419;SDS011;42323;52.170;7.538;2022-10-31T11:47:13;19.50;;;10.95;;
56419;SDS011;42323;52.170;7.538;2022-10-31T11:49:48;22.00;;;11.25;;
56419;SDS011;42323;52.170;7.538;2022-10-31T12:08:35;17.65;;;9.18;;
56419;SDS011;42323;52.170;7.538;2022-10-31T12:14:05;21.65;;;10.65;;
56419;SDS011;42323;52.170;7.538;2022-10-31T12:16:42;17.10;;;8.85;;
56419;SDS011;42323;52.170;7.538;2022-10-31T12:27:52;21.38;;;10.18;;
56419;SDS011;42323;52.170;7.538;2022-10-31T12:30:21;19.35;;;10.20;;
56419;SDS011;42323;52.170;7.538;2022-10-31T13:07:53;18.20;;;8.70;;
56419;SDS011;42323;52.170;7.538;2022-10-31T13:13:02;13.82;;;7.00;;
56419;SDS011;42323;52.170;7.538;2022-10-31T13:15:35;15.02;;;7.80;;
56419;SDS011;42323;52.170;7.538;2022-10-31T13:18:27;15.68;;;7.93;;
56419;SDS011;42323;52.170;7.538;2022-10-31T13:21:02;12.75;;;7.30;;
56419;SDS011;42323;52.170;7.538;2022-10-31T13:23:37;16.27;;;8.55;;
56419;SDS011;42323;52.170;7.538;2022-10-31T13:31:41;17.60;;;8.30;;
56419;SDS011;42323;52.170;7.538;2022-10-31T13:36:53;16.48;;;8.45;;
56419;SDS011;42323;52.170;7.538;2022-10-31T13:44:52;18.10;;;9.05;;
56419;SDS011;42323;52.170;7.538;2022-10-31T13:47:26;15.10;;;7.32;;
56419;SDS011;42323;52.170;7.538;2022-10-31T14:06:19;19.88;;;8.95;;
56419;SDS011;42323;52.170;7.538;2022-10-31T14:08:48;20.05;;;8.63;;
56419;SDS011;42323;52.170;7.538;2022-10-31T14:11:22;18.25;;;8.73;;
56419;SDS011;42323;52.170;7.538;2022-10-31T14:14:01;16.75;;;8.70;;
56419;SDS011;42323;52.170;7.538;2022-10-31T14:16:30;14.07;;;7.25;;
56419;SDS011;42323;52.170;7.538;2022-10-31T14:19:05;17.90;;;6.90;;
56419;SDS011;42323;52.170;7.538;2022-10-31T14:21:42;18.95;;;7.38;;
56419;SDS011;42323;52.170;7.538;2022-10-31T14:26:51;16.58;;;8.13;;
56419;SDS011;42323;52.170;7.538;2022-10-31T14:29:27;14.23;;;8.00;;
56419;SDS011;42323;52.170;7.538;2022-10-31T14:51:25;18.05;;;9.07;;
56419;SDS011;42323;52.170;7.538;2022-10-31T14:54:04;18.30;;;7.93;;
56419;SDS011;42323;52.170;7.538;2022-10-31T15:02:01;17.27;;;7.68;;
56419;SDS011;42323;52.170;7.538;2022-10-31T15:15:31;17.88;;;9.27;;
56419;SDS011;42323;52.170;7.538;2022-10-31T15:17:59;15.10;;;8.00;;
56419;SDS011;42323;52.170;7.538;2022-10-31T15:20:31;16.77;;;7.20;;
56419;SDS011;42323;52.170;7.538;2022-10-31T15:23:04;18.65;;;7.90;;
56419;SDS011;42323;52.170;7.538;2022-10-31T15:25:34;17.60;;;9.02;;
56419;SDS011;42323;52.170;7.538;2022-10-31T15:28:12;17.38;;;8.48;;
56419;SDS011;42323;52.170;7.538;2022-10-31T15:30:39;15.50;;;8.38;;
56419;SDS011;42323;52.170;7.538;2022-10-31T16:16:14;19.27;;;9.07;;
56419;SDS011;42323;52.170;7.538;2022-10-31T16:19:03;14.65;;;8.02;;
56419;SDS011;42323;52.170;7.538;2022-10-31T16:29:41;19.05;;;9.32;;
56419;SDS011;42323;52.170;7.538;2022-10-31T16:37:32;19.23;;;9.38;;
56419;SDS011;42323;52.170;7.538;2022-10-31T16:39:59;19.27;;;9.00;;
56419;SDS011;42323;52.170;7.538;2022-10-31T16:42:26;16.98;;;8.05;;
56419;SDS011;42323;52.170;7.538;2022-10-31T16:44:53;19.40;;;9.30;;
56419;SDS011;42323;52.170;7.538;2022-10-31T16:47:20;20.00;;;9.93;;
56419;SDS011;42323;52.170;7.538;2022-10-31T16:49:51;17.65;;;8.80;;
56419;SDS011;42323;52.170;7.538;2022-10-31T16:52:18;17.15;;;8.95;;
56419;SDS011;42323;52.170;7.538;2022-10-31T16:54:45;18.92;;;8.57;;
56419;SDS011;42323;52.170;7.538;2022-10-31T16:57:13;16.05;;;8.75;;
56419;SDS011;42323;52.170;7.538;2022-10-31T16:59:42;15.52;;;9.65;;
56419;SDS011;42323;52.170;7.538;2022-10-31T17:02:14;17.77;;;9.52;;
56419;SDS011;42323;52.170;7.538;2022-10-31T17:04:42;22.67;;;9.35;;
56419;SDS011;42323;52.170;7.538;2022-10-31T17:07:10;15.30;;;8.55;;
56419;SDS011;42323;52.170;7.538;2022-10-31T17:09:39;14.90;;;8.23;;
56419;SDS011;42323;52.170;7.538;2022-10-31T17:12:06;18.15;;;8.93;;
56419;SDS011;42323;52.170;7.538;2022-10-31T17:14:42;20.23;;;9.23;;
56419;SDS011;42323;52.170;7.538;2022-10-31T17:17:15;19.58;;;8.93;;
56419;SDS011;42323;52.170;7.538;2022-10-31T17:19:42;17.65;;;9.18;;
56419;SDS011;42323;52.170;7.538;2022-10-31T17:22:10;21.40;;;9.30;;
56419;SDS011;42323;52.170;7.538;2022-10-31T17:24:38;16.85;;;9.27;;
56419;SDS011;42323;52.170;7.538;2022-10-31T17:27:05;16.35;;;8.60;;
56419;SDS011;42323;52.170;7.538;2022-10-31T17:29:33;15.38;;;9.20;;
56419;SDS011;42323;52.170;7.538;2022-10-31T17:32:00;17.48;;;8.85;;
56419;SDS011;42323;52.170;7.538;2022-10-31T17:34:29;16.42;;;8.65;;
56419;SDS011;42323;52.170;7.538;2022-10-31T17:36:56;18.25;;;9.07;;
56419;SDS011;42323;52.170;7.538;2022-10-31T17:39:22;16.67;;;8.75;;
56419;SDS011;42323;52.170;7.538;2022-10-31T17:41:50;23.63;;;9.25;;
56419;SDS011;42323;52.170;7.538;2022-10-31T17:44:17;15.57;;;8.07;;
56419;SDS011;42323;52.170;7.538;2022-10-31T17:46:44;16.48;;;8.80;;
56419;SDS011;42323;52.170;7.538;2022-10-31T17:49:11;16.95;;;8.98;;
56419;SDS011;42323;52.170;7.538;2022-10-31T17:51:38;18.77;;;8.13;;
56419;SDS011;42323;52.170;7.538;2022-10-31T17:54:04;19.25;;;8.05;;
56419;SDS011;42323;52.170;7.538;2022-10-31T17:56:34;16.33;;;8.30;;
56419;SDS011;42323;52.170;7.538;2022-10-31T17:59:00;14.13;;;8.50;;
56419;SDS011;42323;52.170;7.538;2022-10-31T18:01:28;19.80;;;9.10;;
56419;SDS011;42323;52.170;7.538;2022-10-31T18:03:55;13.93;;;7.90;;
56419;SDS011;42323;52.170;7.538;2022-10-31T18:06:22;16.55;;;8.32;;
56419;SDS011;42323;52.170;7.538;2022-10-31T18:08:49;15.32;;;7.97;;
56419;SDS011;42323;52.170;7.538;2022-10-31T18:11:16;20.02;;;8.50;;
56419;SDS011;42323;52.170;7.538;2022-10-31T18:13:46;17.45;;;9.75;;
56419;SDS011;42323;52.170;7.538;2022-10-31T18:16:13;17.67;;;9.23;;
56419;SDS011;42323;52.170;7.538;2022-10-31T18:18:42;19.42;;;8.52;;
56419;SDS011;42323;52.170;7.538;2022-10-31T18:21:09;23.10;;;9.10;;
56419;SDS011;42323;52.170;7.538;2022-10-31T18:23:36;16.92;;;9.07;;
56419;SDS011;42323;52.170;7.538;2022-10-31T18:26:03;17.63;;;8.70;;
56419;SDS011;42323;52.170;7.538;2022-10-31T18:28:30;18.98;;;8.80;;
56419;SDS011;42323;52.170;7.538;2022-10-31T18:30:57;18.10;;;9.02;;
56419;SDS011;42323;52.170;7.538;2022-10-31T18:33:26;19.17;;;9.05;;
56419;SDS011;42323;52.170;7.538;2022-10-31T18:35:53;16.27;;;8.35;;
56419;SDS011;42323;52.170;7.538;2022-10-31T18:38:20;17.77;;;8.75;;
56419;SDS011;42323;52.170;7.538;2022-10-31T18:40:47;15.30;;;8.60;;
56419;SDS011;42323;52.170;7.538;2022-10-31T18:43:14;16.88;;;8.55;;
56419;SDS011;42323;52.170;7.538;2022-10-31T18:45:40;18.77;;;8.75;;
56419;SDS011;42323;52.170;7.538;2022-10-31T18:48:14;15.13;;;7.95;;
56419;SDS011;42323;52.170;7.538;2022-10-31T18:50:42;18.52;;;8.30;;
56419;SDS011;42323;52.170;7.538;2022-10-31T18:53:09;16.15;;;8.25;;
56419;SDS011;42323;52.170;7.538;2022-10-31T18:55:38;17.35;;;8.43;;
56419;SDS011;42323;52.170;7.538;2022-10-31T19:00:39;17.70;;;8.45;;
56419;SDS011;42323;52.170;7.538;2022-10-31T19:03:06;17.02;;;8.40;;
56419;SDS011;42323;52.170;7.538;2022-10-31T19:05:33;18.02;;;9.38;;
56419;SDS011;42323;52.170;7.538;2022-10-31T19:08:00;20.00;;;9.93;;
56419;SDS011;42323;52.170;7.538;2022-10-31T19:10:26;20.67;;;9.23;;
56419;SDS011;42323;52.170;7.538;2022-10-31T19:12:53;14.20;;;8.07;;
56419;SDS011;42323;52.170;7.538;2022-10-31T19:15:20;17.42;;;8.52;;
56419;SDS011;42323;52.170;7.538;2022-10-31T19:17:46;16.45;;;8.90;;
56419;SDS011;42323;52.170;7.538;2022-10-31T19:20:13;18.25;;;9.63;;
56419;SDS011;42323;52.170;7.538;2022-10-31T19:22:40;15.50;;;8.68;;
56419;SDS011;42323;52.170;7.538;2022-10-31T19:25:07;19.10;;;8.68;;
56419;SDS011;42323;52.170;7.538;2022-10-31T19:27:36;17.58;;;8.02;;
56419;SDS011;42323;52.170;7.538;2022-10-31T19:30:03;22.00;;;9.82;;
56419;SDS011;42323;52.170;7.538;2022-10-31T19:32:31;20.35;;;10.20;;
56419;SDS011;42323;52.170;7.538;2022-10-31T19:34:57;16.58;;;8.82;;
56419;SDS011;42323;52.170;7.538;2022-10-31T19:37:25;17.73;;;9.98;;
56419;SDS011;42323;52.170;7.538;2022-10-31T19:39:51;27.10;;;13.05;;
56419;SDS011;42323;52.170;7.538;2022-10-31T19:42:18;23.73;;;10.13;;
56419;SDS011;42323;52.170;7.538;2022-10-31T19:44:45;18.50;;;9.27;;
56419;SDS011;42323;52.170;7.538;2022-10-31T19:47:12;19.38;;;8.80;;
56419;SDS011;42323;52.170;7.538;2022-10-31T19:49:39;19.85;;;9.07;;
56419;SDS011;42323;52.170;7.538;2022-10-31T19:52:06;21.98;;;9.48;;
56419;SDS011;42323;52.170;7.538;2022-10-31T19:54:33;17.98;;;8.80;;
56419;SDS011;42323;52.170;7.538;2022-10-31T19:57:00;16.45;;;9.32;;
56419;SDS011;42323;52.170;7.538;2022-10-31T19:59:26;19.73;;;8.93;;
56419;SDS011;42323;52.170;7.538;2022-10-31T20:01:53;22.48;;;9.93;;
56419;SDS011;42323;52.170;7.538;2022-10-31T20:04:20;18.42;;;10.52;;
56419;SDS011;42323;52.170;7.538;2022-10-31T20:06:47;18.70;;;10.40;;
56419;SDS011;42323;52.170;7.538;2022-10-31T20:09:15;17.42;;;9.45;;
56419;SDS011;42323;52.170;7.538;2022-10-31T20:11:42;15.43;;;8.93;;
56419;SDS011;42323;52.170;7.538;2022-10-31T20:14:15;17.52;;;8.98;;
56419;SDS011;42323;52.170;7.538;2022-10-31T20:16:43;16.58;;;8.50;;
56419;SDS011;42323;52.170;7.538;2022-10-31T20:19:11;18.05;;;9.80;;
56419;SDS011;42323;52.170;7.538;2022-10-31T20:21:38;16.00;;;8.23;;
56419;SDS011;42323;52.170;7.538;2022-10-31T20:24:06;15.45;;;8.50;;
56419;SDS011;42323;52.170;7.538;2022-10-31T20:26:35;16.52;;;8.65;;
56419;SDS011;42323;52.170;7.538;2022-10-31T20:29:03;19.25;;;8.55;;
56419;SDS011;42323;52.170;7.538;2022-10-31T20:31:31;18.60;;;9.32;;
56419;SDS011;42323;52.170;7.538;2022-10-31T20:34:00;16.23;;;8.43;;
56419;SDS011;42323;52.170;7.538;2022-10-31T20:36:28;18.30;;;10.65;;
56419;SDS011;42323;52.170;7.538;2022-10-31T20:38:56;16.27;;;8.95;;
56419;SDS011;42323;52.170;7.538;2022-10-31T20:41:25;17.85;;;9.07;;
56419;SDS011;42323;52.170;7.538;2022-10-31T20:44:07;16.45;;;8.88;;
56419;SDS011;42323;52.170;7.538;2022-10-31T20:46:35;18.67;;;8.65;;
56419;SDS011;42323;52.170;7.538;2022-10-31T20:49:02;19.27;;;9.75;;
56419;SDS011;42323;52.170;7.538;2022-10-31T20:51:29;17.58;;;8.85;;
56419;SDS011;42323;52.170;7.538;2022-10-31T20:53:57;18.95;;;9.73;;
56419;SDS011;42323;52.170;7.538;2022-10-31T20:56:26;22.17;;;9.90;;
56419;SDS011;42323;52.170;7.538;2022-10-31T20:58:54;16.92;;;9.32;;
56419;SDS011;42323;52.170;7.538;2022-10-31T21:01:23;21.45;;;10.57;;
56419;SDS011;42323;52.170;7.538;2022-10-31T21:03:55;22.58;;;10.00;;
56419;SDS011;42323;52.170;7.538;2022-10-31T21:06:23;22.65;;;10.48;;
56419;SDS011;42323;52.170;7.538;2022-10-31T21:08:54;19.27;;;9.98;;
56419;SDS011;42323;52.170;7.538;2022-10-31T21:11:30;19.77;;;9.32;;
56419;SDS011;42323;52.170;7.538;2022-10-31T21:14:01;19.77;;;9.35;;
56419;SDS011;42323;52.170;7.538;2022-10-31T21:16:31;17.95;;;9.07;;
56419;SDS011;42323;52.170;7.538;2022-10-31T21:19:02;19.23;;;9.40;;
56419;SDS011;42323;52.170;7.538;2022-10-31T21:21:33;18.30;;;9.07;;
56419;SDS011;42323;52.170;7.538;2022-10-31T21:24:03;20.20;;;8.98;;
56419;SDS011;42323;52.170;7.538;2022-10-31T21:26:33;16.17;;;9.43;;
56419;SDS011;42323;52.170;7.538;2022-10-31T21:29:02;14.48;;;8.95;;
56419;SDS011;42323;52.170;7.538;2022-10-31T21:31:29;17.90;;;9.93;;
56419;SDS011;42323;52.170;7.538;2022-10-31T21:33:56;18.73;;;9.10;;
56419;SDS011;42323;52.170;7.538;2022-10-31T21:36:23;19.42;;;10.05;;
56419;SDS011;42323;52.170;7.538;2022-10-31T21:38:52;17.55;;;8.60;;
56419;SDS011;42323;52.170;7.538;2022-10-31T21:41:22;14.45;;;8.38;;
56419;SDS011;42323;52.170;7.538;2022-10-31T21:43:54;20.33;;;9.52;;
56419;SDS011;42323;52.170;7.538;2022-10-31T21:46:23;19.90;;;9.55;;
56419;SDS011;42323;52.170;7.538;2022-10-31T21:49:00;19.80;;;9.00;;
56419;SDS011;42323;52.170;7.538;2022-10-31T21:51:32;21.35;;;9.13;;
56419;SDS011;42323;52.170;7.538;2022-10-31T21:54:04;16.67;;;8.80;;
56419;SDS011;42323;52.170;7.538;2022-10-31T21:56:49;16.88;;;9.95;;
56419;SDS011;42323;52.170;7.538;2022-10-31T21:59:17;19.52;;;8.65;;
56419;SDS011;42323;52.170;7.538;2022-10-31T22:01:47;13.20;;;7.70;;
56419;SDS011;42323;52.170;7.538;2022-10-31T22:04:15;17.83;;;8.38;;
56419;SDS011;42323;52.170;7.538;2022-10-31T22:06:42;16.38;;;8.20;;
56419;SDS011;42323;52.170;7.538;2022-10-31T22:09:12;15.40;;;8.05;;
56419;SDS011;42323;52.170;7.538;2022-10-31T22:11:40;16.25;;;7.72;;
56419;SDS011;42323;52.170;7.538;2022-10-31T22:14:11;17.25;;;8.60;;
56419;SDS011;42323;52.170;7.538;2022-10-31T22:16:40;14.85;;;8.18;;
56419;SDS011;42323;52.170;7.538;2022-10-31T22:19:07;17.67;;;8.63;;
56419;SDS011;42323;52.170;7.538;2022-10-31T22:21:38;15.13;;;8.68;;
56419;SDS011;42323;52.170;7.538;2022-10-31T22:24:09;15.88;;;7.95;;
56419;SDS011;42323;52.170;7.538;2022-10-31T22:26:36;19.58;;;9.32;;
56419;SDS011;42323;52.170;7.538;2022-10-31T22:29:05;19.08;;;8.52;;
56419;SDS011;42323;52.170;7.538;2022-10-31T22:31:38;20.42;;;9.00;;
56419;SDS011;42323;52.170;7.538;2022-10-31T22:34:07;20.63;;;8.75;;
56419;SDS011;42323;52.170;7.538;2022-10-31T22:36:34;16.40;;;8.25;;
56419;SDS011;42323;52.170;7.538;2022-10-31T22:39:03;18.50;;;8.68;;
56419;SDS011;42323;52.170;7.538;2022-10-31T22:41:31;12.88;;;7.55;;
56419;SDS011;42323;52.170;7.538;2022-10-31T22:44:00;20.27;;;8.68;;
56419;SDS011;42323;52.170;7.538;2022-10-31T22:46:29;16.95;;;7.68;;
56419;SDS011;42323;52.170;7.538;2022-10-31T22:48:59;17.85;;;8.38;;
56419;SDS011;42323;52.170;7.538;2022-10-31T22:51:28;14.77;;;7.88;;
56419;SDS011;42323;52.170;7.538;2022-10-31T22:53:57;13.45;;;7.40;;
56419;SDS011;42323;52.170;7.538;2022-10-31T22:56:25;14.27;;;8.10;;
56419;SDS011;42323;52.170;7.538;2022-10-31T22:58:54;15.60;;;7.80;;
56419;SDS011;42323;52.170;7.538;2022-10-31T23:01:22;12.55;;;6.72;;
56419;SDS011;42323;52.170;7.538;2022-10-31T23:03:51;14.15;;;7.40;;
56419;SDS011;42323;52.170;7.538;2022-10-31T23:06:19;18.77;;;7.50;;
56419;SDS011;42323;52.170;7.538;2022-10-31T23:08:47;15.00;;;7.70;;
56419;SDS011;42323;52.170;7.538;2022-10-31T23:13:43;14.48;;;7.55;;
56419;SDS011;42323;52.170;7.538;2022-10-31T23:16:30;14.50;;;7.45;;
56419;SDS011;42323;52.170;7.538;2022-10-31T23:18:56;15.48;;;7.57;;
56419;SDS011;42323;52.170;7.538;2022-10-31T23:21:23;14.48;;;7.47;;
56419;SDS011;42323;52.170;7.538;2022-10-31T23:26:52;14.00;;;7.70;;
56419;SDS011;42323;52.170;7.538;2022-10-31T23:32:10;16.35;;;8.05;;
56419;SDS011;42323;52.170;7.538;2022-10-31T23:34:58;19.50;;;7.60;;
56419;SDS011;42323;52.170;7.538;2022-10-31T23:37:32;12.38;;;6.90;;
56419;SDS011;42323;52.170;7.538;2022-10-31T23:40:02;17.20;;;7.35;;
56419;SDS011;42323;52.170;7.538;2022-10-31T23:42:29;14.73;;;7.25;;
56419;SDS011;42323;52.170;7.538;2022-10-31T23:44:56;11.68;;;7.20;;
56419;SDS011;42323;52.170;7.538;2022-10-31T23:47:23;13.93;;;6.90;;
56419;SDS011;42323;52.170;7.538;2022-10-31T23:49:49;13.68;;;7.22;;
56419;SDS011;42323;52.170;7.538;2022-10-31T23:52:16;14.98;;;7.88;;
56419;SDS011;42323;52.170;7.538;2022-10-31T23:54:44;14.85;;;6.97;;
56419;SDS011;42323;52.170;7.538;2022-10-31T23:57:11;12.18;;;7.10;;
56419;SDS011;42323;52.170;7.538;2022-10-31T23:59:39;13.05;;;6.65;;
